createdAt,value
2023-03-14T00:02:11.629Z,26.40
2023-03-14T00:04:55.045Z,26.39
2023-03-14T00:07:31.780Z,26.37
2023-03-14T00:10:19.879Z,26.36
2023-03-14T00:15:46.663Z,26.32
2023-03-14T00:18:42.291Z,26.33
2023-03-14T00:21:22.258Z,26.29
2023-03-14T00:24:06.978Z,26.29
2023-03-14T00:30:30.027Z,26.30
2023-03-14T00:33:00.816Z,26.29
2023-03-14T00:35:45.488Z,26.27
2023-03-14T00:38:24.156Z,26.27
2023-03-14T00:41:02.691Z,26.30
2023-03-14T00:43:36.513Z,26.34
2023-03-14T00:46:23.026Z,26.30
2023-03-14T00:51:39.319Z,26.24
2023-03-14T00:57:02.762Z,26.20
2023-03-14T00:59:35.588Z,26.23
2023-03-14T01:02:13.859Z,26.20
2023-03-14T01:05:05.919Z,26.20
2023-03-14T01:08:01.717Z,26.22
2023-03-14T01:16:27.386Z,26.19
2023-03-14T01:19:06.988Z,26.17
2023-03-14T01:24:58.767Z,26.16
2023-03-14T01:27:32.297Z,26.16
2023-03-14T01:30:30.264Z,26.16
2023-03-14T01:33:17.159Z,26.16
2023-03-14T01:36:22.650Z,26.16
2023-03-14T01:39:16.259Z,26.13
2023-03-14T01:41:53.691Z,26.14
2023-03-14T01:44:28.275Z,26.16
2023-03-14T01:47:28.463Z,26.19
2023-03-14T01:50:07.639Z,26.13
2023-03-14T01:52:56.689Z,26.14
2023-03-14T01:55:53.576Z,26.12
2023-03-14T01:58:55.399Z,26.09
2023-03-14T02:01:30.059Z,26.09
2023-03-14T02:04:16.703Z,26.09
2023-03-14T02:07:17.953Z,26.07
2023-03-14T02:10:08.811Z,26.07
2023-03-14T02:12:42.877Z,26.07
2023-03-14T02:15:35.271Z,26.05
2023-03-14T02:18:27.387Z,26.06
2023-03-14T02:21:58.454Z,26.09
2023-03-14T02:25:11.704Z,26.06
2023-03-14T02:27:50.687Z,26.03
2023-03-14T02:30:47.742Z,26.06
2023-03-14T02:33:40.642Z,26.05
2023-03-14T02:39:55.901Z,26.05
2023-03-14T02:43:08.936Z,26.06
2023-03-14T02:45:59.969Z,26.03
2023-03-14T02:49:07.295Z,26.02
2023-03-14T02:51:40.037Z,26.00
2023-03-14T02:54:37.179Z,25.99
2023-03-14T03:01:05.492Z,25.99
2023-03-14T03:03:48.524Z,26.00
2023-03-14T03:06:20.375Z,26.00
2023-03-14T03:09:04.302Z,26.02
2023-03-14T03:15:00.492Z,26.03
2023-03-14T03:17:44.517Z,26.02
2023-03-14T03:20:16.516Z,26.02
2023-03-14T03:23:03.128Z,26.03
2023-03-14T03:25:54.384Z,26.05
2023-03-14T03:31:34.815Z,25.97
2023-03-14T03:34:09.195Z,25.93
2023-03-14T03:36:52.549Z,26.00
2023-03-14T03:39:33.171Z,25.99
2023-03-14T03:42:10.197Z,26.03
2023-03-14T03:44:40.732Z,26.05
2023-03-14T03:47:12.197Z,25.95
2023-03-14T03:49:52.504Z,25.86
2023-03-14T03:52:27.067Z,25.95
2023-03-14T03:55:09.671Z,25.93
2023-03-14T03:57:53.896Z,25.92
2023-03-14T04:00:28.967Z,25.88
2023-03-14T04:03:04.394Z,25.88
2023-03-14T04:05:44.014Z,25.90
2023-03-14T04:08:31.749Z,25.92
2023-03-14T04:11:51.395Z,25.93
2023-03-14T04:14:34.558Z,25.88
2023-03-14T04:17:38.176Z,25.88
2023-03-14T04:20:42.719Z,25.89
2023-03-14T04:23:25.513Z,25.92
2023-03-14T04:26:27.379Z,25.89
2023-03-14T04:28:58.848Z,25.85
2023-03-14T04:31:35.130Z,25.81
2023-03-14T04:34:18.059Z,25.78
2023-03-14T04:37:01.925Z,25.79
2023-03-14T04:39:52.673Z,25.75
2023-03-14T04:42:54.752Z,25.73
2023-03-14T04:45:34.441Z,25.69
2023-03-14T04:51:29.718Z,25.66
2023-03-14T04:54:06.685Z,25.62
2023-03-14T05:00:08.385Z,25.59
2023-03-14T05:06:27.546Z,25.45
2023-03-14T05:09:49.351Z,25.42
2023-03-14T05:16:18.758Z,25.27
2023-03-14T05:19:29.160Z,25.21
2023-03-14T05:22:24.451Z,25.18
2023-03-14T05:29:00.899Z,25.18
2023-03-14T05:35:30.148Z,25.24
2023-03-14T05:38:50.059Z,25.27
2023-03-14T05:41:49.234Z,25.27
2023-03-14T05:45:00.577Z,25.22
2023-03-14T05:48:00.903Z,25.21
2023-03-14T05:51:18.760Z,25.17
2023-03-14T05:54:22.734Z,25.20
2023-03-14T05:57:27.076Z,25.24
2023-03-14T06:06:56.410Z,25.20
2023-03-14T06:09:35.804Z,25.20
2023-03-14T06:12:26.863Z,25.22
2023-03-14T06:14:59.431Z,25.18
2023-03-14T06:17:42.005Z,25.18
2023-03-14T06:20:26.488Z,25.21
2023-03-14T06:23:09.219Z,25.20
2023-03-14T06:25:56.705Z,25.21
2023-03-14T06:28:32.527Z,25.20
2023-03-14T06:31:12.520Z,25.14
2023-03-14T06:33:59.469Z,25.11
2023-03-14T06:42:32.740Z,25.03
2023-03-14T06:45:13.695Z,25.03
2023-03-14T06:48:06.055Z,25.01
2023-03-14T06:50:51.680Z,24.98
2023-03-14T06:59:11.714Z,24.86
2023-03-14T07:01:51.827Z,24.86
2023-03-14T07:04:43.418Z,24.81
2023-03-14T07:07:18.731Z,24.81
2023-03-14T07:09:57.738Z,24.79
2023-03-14T07:12:27.961Z,24.77
2023-03-14T07:15:19.071Z,24.73
2023-03-14T07:18:08.642Z,24.71
2023-03-14T07:21:03.326Z,24.69
2023-03-14T07:23:36.613Z,24.66
2023-03-14T07:26:19.941Z,24.64
2023-03-14T07:32:19.878Z,24.63
2023-03-14T07:34:53.539Z,24.59
2023-03-14T07:37:28.049Z,24.59
2023-03-14T07:40:20.692Z,24.57
2023-03-14T07:43:17.241Z,24.66
2023-03-14T07:46:07.515Z,24.53
2023-03-14T07:48:43.155Z,24.49
2023-03-14T07:51:20.542Z,24.50
2023-03-14T07:53:50.986Z,24.49
2023-03-14T07:56:35.654Z,24.44
2023-03-14T08:02:35.962Z,24.43
2023-03-14T08:08:10.499Z,24.43
2023-03-14T08:10:55.837Z,24.41
2023-03-14T08:13:32.642Z,24.39
2023-03-14T08:19:05.169Z,24.39
2023-03-14T08:21:40.606Z,24.33
2023-03-14T08:24:15.049Z,24.30
2023-03-14T08:30:04.794Z,24.35
2023-03-14T08:39:22.837Z,24.32
2023-03-14T08:42:12.799Z,24.29
2023-03-14T08:44:44.766Z,24.23
2023-03-14T08:47:22.814Z,24.28
2023-03-14T08:49:59.378Z,24.23
2023-03-14T08:52:38.515Z,24.25
2023-03-14T08:55:11.543Z,24.26
2023-03-14T08:57:46.244Z,24.25
2023-03-14T09:00:30.920Z,24.23
2023-03-14T09:03:03.987Z,24.23
2023-03-14T09:05:54.985Z,24.26
2023-03-14T09:08:26.457Z,24.20
2023-03-14T09:11:16.998Z,24.23
2023-03-14T09:17:22.283Z,24.25
2023-03-14T09:20:03.243Z,24.25
2023-03-14T09:22:54.984Z,24.26
2023-03-14T09:26:00.172Z,24.28
2023-03-14T09:31:21.525Z,24.35
2023-03-14T09:33:59.511Z,24.37
2023-03-14T09:36:34.248Z,24.43
2023-03-14T09:39:23.664Z,24.47
2023-03-14T09:45:26.032Z,24.64
2023-03-14T09:48:05.248Z,24.66
2023-03-14T09:51:17.570Z,24.74
2023-03-14T09:54:08.939Z,24.79
2023-03-14T09:56:52.686Z,24.81
2023-03-14T09:59:41.417Z,24.88
2023-03-14T10:02:48.965Z,24.92
2023-03-14T10:08:54.034Z,24.94
2023-03-14T10:14:55.691Z,25.06
2023-03-14T10:21:36.986Z,25.22
2023-03-14T10:24:25.093Z,25.24
2023-03-14T10:27:01.574Z,25.42
2023-03-14T10:30:26.838Z,25.53
2023-03-14T10:39:57.316Z,25.76
2023-03-14T10:42:46.245Z,26.34
2023-03-14T10:49:14.790Z,28.09
2023-03-14T10:52:02.924Z,29.19
2023-03-14T10:57:57.232Z,29.05
2023-03-14T11:01:55.279Z,28.55
2023-03-14T11:05:10.434Z,28.69
2023-03-14T11:08:04.166Z,28.78
2023-03-14T11:11:30.881Z,28.60
2023-03-14T11:14:45.805Z,29.04
2023-03-14T11:18:00.039Z,29.01
2023-03-14T11:25:06.057Z,29.57
2023-03-14T11:28:09.263Z,28.88
2023-03-14T11:31:06.564Z,29.35
2023-03-14T11:36:56.714Z,29.46
2023-03-14T11:39:54.862Z,29.55
2023-03-14T11:42:55.268Z,29.69
2023-03-14T11:45:54.563Z,29.96
2023-03-14T11:52:09.286Z,29.50
2023-03-14T11:55:08.332Z,30.00
2023-03-14T11:57:45.791Z,30.07
2023-03-14T12:06:55.302Z,30.58
2023-03-14T12:12:34.696Z,30.57
2023-03-14T12:15:39.568Z,30.64
2023-03-14T12:25:54.758Z,31.29
2023-03-14T12:29:30.314Z,31.57
2023-03-14T12:39:13.244Z,31.33
2023-03-14T12:45:51.973Z,31.06
2023-03-14T12:48:45.477Z,31.19
2023-03-14T12:51:55.041Z,31.03
2023-03-14T12:58:39.892Z,31.63
2023-03-14T13:04:39.350Z,30.82
2023-03-14T13:14:24.583Z,30.72
2023-03-14T13:23:56.266Z,31.27
2023-03-14T13:27:03.333Z,31.20
2023-03-14T13:30:03.386Z,31.20
2023-03-14T13:32:58.643Z,31.13
2023-03-14T13:36:43.119Z,31.37
2023-03-14T13:45:34.482Z,31.34
2023-03-14T13:51:19.109Z,31.33
2023-03-14T13:54:00.403Z,31.25
2023-03-14T13:59:46.308Z,31.34
2023-03-14T14:06:07.268Z,31.25
2023-03-14T14:08:50.205Z,31.42
2023-03-14T14:11:48.728Z,31.42
2023-03-14T14:14:57.177Z,31.50
2023-03-14T14:18:38.402Z,31.54
2023-03-14T14:21:37.743Z,31.42
2023-03-14T14:24:28.979Z,31.57
2023-03-14T14:31:15.839Z,31.49
2023-03-14T14:34:09.226Z,31.43
2023-03-14T14:40:41.364Z,31.53
2023-03-14T14:46:50.483Z,31.40
2023-03-14T14:49:26.628Z,31.29
2023-03-14T14:52:35.464Z,31.57
2023-03-14T14:55:38.940Z,31.53
2023-03-14T14:58:37.439Z,31.30
2023-03-14T15:01:38.813Z,30.42
2023-03-14T15:07:10.526Z,30.55
2023-03-14T15:10:08.012Z,30.95
2023-03-14T15:12:58.607Z,31.08
2023-03-14T15:19:17.908Z,31.29
2023-03-14T15:22:20.552Z,31.13
2023-03-14T15:25:00.579Z,30.90
2023-03-14T15:27:53.749Z,30.99
2023-03-14T15:31:04.749Z,31.39
2023-03-14T15:36:50.536Z,30.92
2023-03-14T15:39:43.753Z,31.08
2023-03-14T15:45:27.523Z,31.08
2023-03-14T15:48:10.206Z,30.99
2023-03-14T15:50:51.709Z,30.88
2023-03-14T15:53:37.012Z,30.82
2023-03-14T15:56:23.333Z,30.89
2023-03-14T16:04:59.578Z,31.26
2023-03-14T16:07:44.974Z,31.29
2023-03-14T16:10:35.083Z,31.39
2023-03-14T16:13:27.802Z,31.25
2023-03-14T16:16:25.697Z,31.20
2023-03-14T16:19:09.735Z,31.30
2023-03-14T16:22:04.143Z,31.23
2023-03-14T16:27:45.031Z,31.19
2023-03-14T16:30:44.574Z,31.27
2023-03-14T16:33:27.634Z,31.26
2023-03-14T16:38:55.157Z,31.10
2023-03-14T16:41:47.470Z,31.09
2023-03-14T16:44:23.398Z,30.98
2023-03-14T16:47:11.027Z,31.02
2023-03-14T16:49:49.238Z,30.96
2023-03-14T16:52:27.312Z,30.98
2023-03-14T16:55:14.674Z,30.90
2023-03-14T16:57:58.886Z,30.74
2023-03-14T17:00:37.385Z,30.75
2023-03-14T17:06:48.807Z,30.81
2023-03-14T17:12:26.150Z,30.74
2023-03-14T17:18:25.068Z,30.57
2023-03-14T17:21:14.681Z,30.65
2023-03-14T17:24:37.357Z,30.62
2023-03-14T17:27:15.520Z,30.59
2023-03-14T17:29:50.830Z,30.51
2023-03-14T17:35:17.796Z,30.54
2023-03-14T17:37:54.238Z,30.52
2023-03-14T17:40:38.389Z,30.55
2023-03-14T17:43:18.599Z,30.71
2023-03-14T17:46:09.195Z,30.76
2023-03-14T17:48:48.632Z,30.68
2023-03-14T17:52:07.590Z,30.83
2023-03-14T17:54:53.099Z,30.68
2023-03-14T17:57:40.199Z,30.62
2023-03-14T18:00:19.772Z,30.34
2023-03-14T18:03:11.325Z,30.52
2023-03-14T18:06:11.896Z,30.52
2023-03-14T18:14:26.919Z,30.64
2023-03-14T18:20:27.578Z,30.45
2023-03-14T18:23:42.407Z,30.47
2023-03-14T18:26:33.550Z,30.78
2023-03-14T18:29:07.285Z,30.48
2023-03-14T18:31:47.356Z,30.39
2023-03-14T18:34:29.053Z,30.44
2023-03-14T18:37:05.101Z,30.75
2023-03-14T18:39:39.494Z,30.28
2023-03-14T18:42:16.615Z,30.29
2023-03-14T18:45:15.424Z,30.28
2023-03-14T18:48:04.744Z,30.41
2023-03-14T18:50:42.037Z,30.17
2023-03-14T18:56:06.856Z,30.29
2023-03-14T18:58:46.153Z,30.32
2023-03-14T19:01:20.649Z,30.24
2023-03-14T19:04:03.599Z,30.07
2023-03-14T19:06:52.503Z,29.83
2023-03-14T19:12:12.766Z,29.86
2023-03-14T19:14:54.377Z,29.96
2023-03-14T19:17:26.476Z,29.97
2023-03-14T19:20:01.859Z,29.97
2023-03-14T19:25:58.373Z,29.90
2023-03-14T19:28:41.769Z,29.78
2023-03-14T19:31:18.748Z,29.87
2023-03-14T19:36:51.325Z,29.87
2023-03-14T19:39:39.464Z,30.01
2023-03-14T19:42:15.556Z,29.97
2023-03-14T19:44:52.378Z,29.84
2023-03-14T19:47:36.243Z,29.52
2023-03-14T19:50:34.128Z,29.12
2023-03-14T19:53:25.721Z,28.74
2023-03-14T19:55:56.878Z,28.60
2023-03-14T19:58:30.721Z,28.41
2023-03-14T20:01:25.694Z,28.41
2023-03-14T20:04:47.586Z,28.33
2023-03-14T20:10:21.741Z,28.03
2023-03-14T20:13:21.865Z,27.94
2023-03-14T20:16:13.161Z,27.86
2023-03-14T20:21:47.547Z,27.74
2023-03-14T20:24:46.862Z,27.72
2023-03-14T20:27:36.673Z,27.65
2023-03-14T20:30:18.022Z,27.66
2023-03-14T20:33:02.051Z,27.66
2023-03-14T20:35:34.448Z,27.58
2023-03-14T20:48:11.219Z,27.48
2023-03-14T20:50:44.416Z,27.49
2023-03-14T20:53:21.899Z,27.43
2023-03-14T20:55:58.300Z,27.43
2023-03-14T20:58:28.831Z,27.35
2023-03-14T21:01:03.338Z,27.29
2023-03-14T21:03:44.736Z,27.34
2023-03-14T21:06:23.716Z,27.28
2023-03-14T21:09:04.223Z,27.22
2023-03-14T21:11:50.256Z,27.22
2023-03-14T21:14:30.189Z,27.16
2023-03-14T21:20:34.869Z,27.16
2023-03-14T21:23:14.302Z,27.12
2023-03-14T21:31:38.976Z,27.04
2023-03-14T21:34:12.328Z,26.98
2023-03-14T21:36:44.599Z,26.98
2023-03-14T21:42:18.582Z,26.97
2023-03-14T21:45:01.752Z,26.90
2023-03-14T21:47:37.678Z,26.85
2023-03-14T21:53:08.518Z,26.87
2023-03-14T21:55:44.671Z,26.87
2023-03-14T21:58:24.032Z,26.88
2023-03-14T22:01:14.387Z,26.88
2023-03-14T22:06:31.372Z,26.83
2023-03-14T22:09:10.283Z,26.83
2023-03-14T22:11:51.849Z,26.80
2023-03-14T22:14:30.458Z,26.78
2023-03-14T22:20:21.425Z,26.85
2023-03-14T22:22:59.540Z,26.80
2023-03-14T22:25:35.383Z,26.77
2023-03-14T22:28:06.873Z,26.74
2023-03-14T22:30:38.301Z,26.74
2023-03-14T22:33:14.194Z,26.70
2023-03-14T22:36:09.169Z,26.71
2023-03-14T22:38:49.545Z,26.68
2023-03-14T22:41:24.782Z,26.71
2023-03-14T22:43:57.036Z,26.67
2023-03-14T22:49:24.298Z,26.70
2023-03-14T22:55:31.264Z,26.67
2023-03-14T22:58:05.426Z,26.64
2023-03-14T23:00:41.178Z,26.67
2023-03-14T23:03:16.774Z,26.68
2023-03-14T23:06:09.446Z,26.68
2023-03-14T23:08:44.711Z,26.76
2023-03-14T23:11:23.751Z,26.71
2023-03-14T23:14:03.295Z,26.70
2023-03-14T23:16:41.129Z,26.68
2023-03-14T23:19:13.325Z,26.70
2023-03-14T23:21:50.607Z,26.71
2023-03-14T23:24:31.768Z,26.76
2023-03-14T23:27:16.031Z,26.74
2023-03-14T23:29:59.581Z,26.77
2023-03-14T23:32:34.309Z,26.76
2023-03-14T23:35:09.246Z,26.68
2023-03-14T23:37:40.457Z,26.68
2023-03-14T23:43:04.024Z,26.64
2023-03-14T23:45:36.609Z,26.64
2023-03-14T23:48:08.083Z,26.63
2023-03-14T23:50:42.586Z,26.57
2023-03-14T23:53:30.156Z,26.63
2023-03-14T23:58:59.210Z,26.54
